Port Costa, California
Current Conditions -  °F | °C
As of 11:53 AM on Sunday 28 Dec 2014 (Local Time) from KCCR Reporting Station
Clear Clear  
Wind Chill: 53°   Ceiling: Unl
Heat Index: 53°   Visibility: 10mi
Dew Point: 34°   Wind: 3mph
Humidity: 48%   Direction: 230°SW
Pressure: 30.31"   Gusts: NA
Location:  38.05°N, 122.19°W
Report Text: KCCR 281953Z 23003KT 10SM CLR 12/01 A3031 RMK AO2 SLP251 T01170011
Loading
Personal Weather Stations






























Interactive Weather Map New forecast layout! Learn more

10-Day Weather Forecast

Advertisements
Track Severe Weather on mobile